Belomorsk — UBJM2 — position and weather

sailwx.info

Track history (hours):
 
Tides and Currents Weather Stations Pressure Air Temp Water Temp Dewpoint Dewpoint Depression Visibility Wind Speed Wind Dir Waves Ship Positions

Belomorsk

Last reported at 2018-May-25 18:31 UTC. Time now 2018-May-25 18:43 UTC.
Position N 68°57' E 033°02'.

Length 69 m; draft 6.5 m.

Type: Fishing. MMSI: 273370020.

Date/timePositionNaut miles runAvg speedWind from/ knotsBaromVisibWave heightAir tempDewpointWater temp
2018-May-25 18:31N 68°57' E 033°02'0 0.0
2018-May-25 18:00N 68°57' E 033°02'0 0.0
2018-May-25 17:31N 68°57' E 033°02'0 0.0
2018-May-25 17:00N 68°57' E 033°02'0 0.0
2018-May-25 16:31N 68°57' E 033°02'1 1.3
2018-May-25 16:01N 68°57' E 033°01'1 2.7
2018-May-25 15:30N 68°59' E 033°02'3 5.7
2018-May-25 15:00N 69°01' E 033°03'72 5.1
2018-May-25 01:01N 70°10' E 032°02'0 5.4
2018-May-25 01:00N 70°10' E 032°01'3 5.4
2018-May-25 00:28N 70°10' E 031°53'2 5.2
2018-May-25 00:00N 70°10' E 031°46'4 7.9
2018-May-24 23:30N 70°09' E 031°34'5 9.8
2018-May-24 23:00N 70°08' E 031°21'5 9.7
2018-May-24 22:30N 70°07' E 031°06'5 9.6
2018-May-24 22:00N 70°05' E 030°53'5 9.8
2018-May-24 21:30N 70°02' E 030°42'5 9.8
2018-May-24 21:00N 69°59' E 030°30'5 9.9
2018-May-24 20:30N 69°56' E 030°19'510.3
2018-May-24 20:00N 69°53' E 030°07'510.3
2018-May-24 19:29N 69°47' E 030°06'4 7.5
2018-May-24 19:00N 69°44' E 030°04'0 0.0
2018-May-24 18:29N 69°44' E 030°05'0 0.0
2018-May-24 17:59N 69°44' E 030°05'0 0.0
2018-May-24 17:30N 69°44' E 030°05'0 0.0
2018-May-24 16:58N 69°44' E 030°05'0 0.0
2018-May-24 16:28N 69°44' E 030°05'0 0.0
2018-May-24 16:01N 69°44' E 030°05'0 0.0
2018-May-24 15:29N 69°44' E 030°05'0 0.0
2018-May-24 14:59N 69°44' E 030°05'0 0.0
2018-May-24 14:30N 69°44' E 030°05'0 0.0
2018-May-24 13:59N 69°44' E 030°05'0 0.0
2018-May-24 13:29N 69°44' E 030°05'0 0.0
2018-May-24 09:00N 69°44' E 030°05'0 0.0
2018-May-24 08:30N 69°44' E 030°05'0 0.0
2018-May-24 08:00N 69°44' E 030°05'0 0.0
2018-May-24 07:30N 69°44' E 030°05'0 0.0
2018-May-24 07:00N 69°44' E 030°05'0 0.0
2018-May-24 06:29N 69°44' E 030°05'0 0.0
2018-May-24 06:00N 69°44' E 030°05'0 0.0
2018-May-24 05:29N 69°44' E 030°05'0 0.0
2018-May-24 05:00N 69°44' E 030°05'0 0.0
2018-May-24 04:30N 69°44' E 030°05'0 0.0
2018-May-24 03:59N 69°44' E 030°05'0 0.0
2018-May-24 03:30N 69°44' E 030°05'0 0.0
2018-May-24 03:00N 69°44' E 030°05'0 0.0
2018-May-24 02:30N 69°44' E 030°05'0 0.0
2018-May-24 02:00N 69°44' E 030°05'0 0.0
2018-May-24 01:30N 69°44' E 030°05'0 0.0
2018-May-24 00:59N 69°44' E 030°05'0 0.0
2018-May-24 00:29N 69°44' E 030°05'0 0.0
2018-May-24 00:00N 69°44' E 030°05'0 0.0
2018-May-23 23:30N 69°44' E 030°05'0 0.0
2018-May-23 23:01N 69°44' E 030°05'0 0.0
2018-May-23 22:29N 69°44' E 030°05'0 0.0
2018-May-23 22:00N 69°44' E 030°05'0 0.0
2018-May-23 21:29N 69°44' E 030°05'0 0.0
2018-May-23 21:00N 69°44' E 030°05'0 0.0
2018-May-23 20:30N 69°44' E 030°05'0 0.0
2018-May-23 20:01N 69°44' E 030°05'0 0.0
2018-May-23 19:30N 69°44' E 030°05'0 0.0
2018-May-23 19:00N 69°44' E 030°05'0 0.0
2018-May-23 18:30N 69°44' E 030°05'0 0.0
2018-May-23 17:59N 69°44' E 030°05'0 0.0
2018-May-23 17:30N 69°44' E 030°05'0 0.0
2018-May-23 17:00N 69°44' E 030°05'0 0.0
2018-May-23 16:30N 69°44' E 030°05'0 0.0
2018-May-23 16:00N 69°44' E 030°05'0 0.0
2018-May-23 15:30N 69°44' E 030°05'0 0.0
2018-May-23 15:00N 69°44' E 030°05'0 0.0
2018-May-23 14:30N 69°44' E 030°05'0 0.0
2018-May-23 14:00N 69°44' E 030°05'0 0.0
2018-May-23 13:30N 69°44' E 030°05'0 0.0
2018-May-23 13:00N 69°44' E 030°05'0 0.0
2018-May-23 12:30N 69°44' E 030°05'0 0.0
2018-May-23 12:00N 69°44' E 030°05'0 0.0
2018-May-23 11:30N 69°44' E 030°05'0 0.0
2018-May-23 10:59N 69°44' E 030°05'0 0.0
2018-May-23 10:30N 69°44' E 030°05'0 0.0
2018-May-23 09:59N 69°44' E 030°05'0 0.0
2018-May-23 09:30N 69°44' E 030°05'0 0.0
2018-May-23 08:59N 69°44' E 030°05'0 0.0
2018-May-23 08:30N 69°44' E 030°05'0 0.0
2018-May-23 08:00N 69°44' E 030°05'0 0.0
2018-May-23 07:30N 69°44' E 030°05'0 0.0
2018-May-23 06:59N 69°44' E 030°05'0 0.0
2018-May-23 06:29N 69°44' E 030°05'0 0.0
2018-May-23 06:00N 69°44' E 030°05'0 0.0
2018-May-23 05:30N 69°44' E 030°05'0 0.0
2018-May-23 05:00N 69°44' E 030°05'0 0.0
2018-May-23 04:30N 69°44' E 030°05'0 0.0
2018-May-23 03:59N 69°44' E 030°05'0 0.0
2018-May-23 03:27N 69°44' E 030°05'0 0.0
2018-May-23 03:00N 69°44' E 030°05'0 0.0
2018-May-23 02:30N 69°44' E 030°05'0 0.0
2018-May-23 02:01N 69°44' E 030°05'0 0.0
2018-May-23 01:29N 69°44' E 030°05'0 0.0
2018-May-23 00:58N 69°44' E 030°05'0 0.0
2018-May-23 00:30N 69°44' E 030°05'0 0.0
2018-May-23 00:00N 69°44' E 030°05'0 0.0
2018-May-22 23:29N 69°44' E 030°05'0 0.0
2018-May-22 23:00N 69°44' E 030°05'0 0.0
2018-May-22 22:29N 69°44' E 030°05'0 0.0
2018-May-22 22:00N 69°44' E 030°05'0 0.0
2018-May-22 21:30N 69°44' E 030°05'0 0.0
2018-May-22 21:00N 69°44' E 030°05'0 0.0
2018-May-22 20:29N 69°44' E 030°05'0 0.0
2018-May-22 19:59N 69°44' E 030°05'0 0.0
2018-May-22 19:30N 69°44' E 030°05'0 0.0
2018-May-22 18:59N 69°44' E 030°05'0 0.0
2018-May-22 18:30N 69°44' E 030°05'0 0.0
2018-May-22 17:59N 69°44' E 030°05'0 0.0
2018-May-22 17:30N 69°44' E 030°05'0 0.0
2018-May-22 17:00N 69°44' E 030°05'0 0.0
2018-May-22 16:30N 69°44' E 030°05'0 0.0
2018-May-22 16:00N 69°44' E 030°05'0 0.0
2018-May-22 15:30N 69°44' E 030°05'0 0.0
2018-May-22 15:00N 69°44' E 030°05'0 0.0
2018-May-22 14:28N 69°44' E 030°05'0 0.0
2018-May-22 13:58N 69°44' E 030°05'0 0.0
2018-May-22 13:30N 69°44' E 030°05'0 0.0
2018-May-22 13:00N 69°44' E 030°05'0 0.0
2018-May-22 12:30N 69°44' E 030°05'0 0.0
2018-May-22 12:00N 69°44' E 030°05'0 0.0
2018-May-22 11:30N 69°44' E 030°05'0 0.0
2018-May-22 11:00N 69°44' E 030°05'0 0.0
2018-May-22 10:30N 69°44' E 030°05'0 0.0
2018-May-22 10:00N 69°44' E 030°05'0 0.0
2018-May-22 09:30N 69°44' E 030°05'0 0.0
2018-May-22 08:56N 69°44' E 030°05'0 0.0
2018-May-22 08:30N 69°44' E 030°05'0 0.0
2018-May-22 08:00N 69°44' E 030°05'0 0.0
2018-May-22 07:30N 69°44' E 030°05'0 0.0
2018-May-22 07:00N 69°44' E 030°05'0 0.0
2018-May-22 06:30N 69°44' E 030°05'2 4.8
2018-May-22 06:00N 69°46' E 030°05'4 7.9
2018-May-22 05:30N 69°50' E 030°07'4 8.3
2018-May-22 04:59N 69°54' E 030°12'5 9.4
2018-May-22 04:30N 69°57' E 030°23'510.0
2018-May-22 04:00N 69°60' E 030°35'5 9.9
2018-May-22 03:30N 70°03' E 030°46'5 9.9
2018-May-22 03:00N 70°06' E 030°57'5 9.1
2018-May-22 02:30N 70°09' E 031°07'5 9.6
2018-May-22 02:00N 70°12' E 031°18'5 9.5
2018-May-22 01:30N 70°15' E 031°28'5 9.5
2018-May-22 01:00N 70°18' E 031°39'4 3.2
2018-May-21 23:38N 70°20' E 031°51'1 5.1
2018-May-21 23:30N 70°19' E 031°51'19 5.1
2018-May-21 19:44N 70°37' E 031°32'2 9.7
2018-May-21 19:30N 70°39' E 031°28'510.0
2018-May-21 19:00N 70°43' E 031°17'5 9.9
2018-May-21 18:30N 70°46' E 031°07'510.1
2018-May-21 18:00N 70°50' E 030°55'510.2
2018-May-21 17:30N 70°53' E 030°43'5 9.9
2018-May-21 17:00N 70°56' E 030°31'5 9.8
2018-May-21 16:30N 70°59' E 030°19'5 9.8
2018-May-21 16:00N 71°02' E 030°07'510.2
2018-May-21 15:29N 71°05' E 029°54'510.0
2018-May-21 14:58N 71°08' E 029°41'5 9.7
2018-May-21 14:30N 71°10' E 029°29'5 9.6
2018-May-21 14:00N 71°13' E 029°18'5 9.4
2018-May-21 13:30N 71°16' E 029°06'5 9.1
2018-May-21 13:00N 71°19' E 028°56'4 9.0
2018-May-21 12:30N 71°22' E 028°45'  
Track history (hours):
 
Tides and Currents Weather Stations Pressure Air Temp Water Temp Dewpoint Dewpoint Depression Visibility Wind Speed Wind Dir Waves Ship Positions

Belomorsk

Last reported at 2018-May-25 18:31 UTC. Time now 2018-May-25 18:43 UTC.
Position N 68°57' E 033°02'.

Length 69 m; draft 6.5 m.

Type: Fishing. MMSI: 273370020.

Date/timePositionNaut miles runAvg speedWind from/ knotsBaromVisibWave heightAir tempDewpointWater temp
2018-May-25 18:31N 68°57' E 033°02'0 0.0
2018-May-25 18:00N 68°57' E 033°02'0 0.0
2018-May-25 17:31N 68°57' E 033°02'0 0.0
2018-May-25 17:00N 68°57' E 033°02'0 0.0
2018-May-25 16:31N 68°57' E 033°02'1 1.3
2018-May-25 16:01N 68°57' E 033°01'1 2.7
2018-May-25 15:30N 68°59' E 033°02'3 5.7
2018-May-25 15:00N 69°01' E 033°03'72 5.1
2018-May-25 01:01N 70°10' E 032°02'0 5.4
2018-May-25 01:00N 70°10' E 032°01'3 5.4
2018-May-25 00:28N 70°10' E 031°53'2 5.2
2018-May-25 00:00N 70°10' E 031°46'4 7.9
2018-May-24 23:30N 70°09' E 031°34'5 9.8
2018-May-24 23:00N 70°08' E 031°21'5 9.7
2018-May-24 22:30N 70°07' E 031°06'5 9.6
2018-May-24 22:00N 70°05' E 030°53'5 9.8
2018-May-24 21:30N 70°02' E 030°42'5 9.8
2018-May-24 21:00N 69°59' E 030°30'5 9.9
2018-May-24 20:30N 69°56' E 030°19'510.3
2018-May-24 20:00N 69°53' E 030°07'510.3
2018-May-24 19:29N 69°47' E 030°06'4 7.5
2018-May-24 19:00N 69°44' E 030°04'0 0.0
2018-May-24 18:29N 69°44' E 030°05'0 0.0
2018-May-24 17:59N 69°44' E 030°05'0 0.0
2018-May-24 17:30N 69°44' E 030°05'0 0.0
2018-May-24 16:58N 69°44' E 030°05'0 0.0
2018-May-24 16:28N 69°44' E 030°05'0 0.0
2018-May-24 16:01N 69°44' E 030°05'0 0.0
2018-May-24 15:29N 69°44' E 030°05'0 0.0
2018-May-24 14:59N 69°44' E 030°05'0 0.0
2018-May-24 14:30N 69°44' E 030°05'0 0.0
2018-May-24 13:59N 69°44' E 030°05'0 0.0
2018-May-24 13:29N 69°44' E 030°05'0 0.0
2018-May-24 09:00N 69°44' E 030°05'0 0.0
2018-May-24 08:30N 69°44' E 030°05'0 0.0
2018-May-24 08:00N 69°44' E 030°05'0 0.0
2018-May-24 07:30N 69°44' E 030°05'0 0.0
2018-May-24 07:00N 69°44' E 030°05'0 0.0
2018-May-24 06:29N 69°44' E 030°05'0 0.0
2018-May-24 06:00N 69°44' E 030°05'0 0.0
2018-May-24 05:29N 69°44' E 030°05'0 0.0
2018-May-24 05:00N 69°44' E 030°05'0 0.0
2018-May-24 04:30N 69°44' E 030°05'0 0.0
2018-May-24 03:59N 69°44' E 030°05'0 0.0
2018-May-24 03:30N 69°44' E 030°05'0 0.0
2018-May-24 03:00N 69°44' E 030°05'0 0.0
2018-May-24 02:30N 69°44' E 030°05'0 0.0
2018-May-24 02:00N 69°44' E 030°05'0 0.0
2018-May-24 01:30N 69°44' E 030°05'0 0.0
2018-May-24 00:59N 69°44' E 030°05'0 0.0
2018-May-24 00:29N 69°44' E 030°05'0 0.0
2018-May-24 00:00N 69°44' E 030°05'0 0.0
2018-May-23 23:30N 69°44' E 030°05'0 0.0
2018-May-23 23:01N 69°44' E 030°05'0 0.0
2018-May-23 22:29N 69°44' E 030°05'0 0.0
2018-May-23 22:00N 69°44' E 030°05'0 0.0
2018-May-23 21:29N 69°44' E 030°05'0 0.0
2018-May-23 21:00N 69°44' E 030°05'0 0.0
2018-May-23 20:30N 69°44' E 030°05'0 0.0
2018-May-23 20:01N 69°44' E 030°05'0 0.0
2018-May-23 19:30N 69°44' E 030°05'0 0.0
2018-May-23 19:00N 69°44' E 030°05'0 0.0
2018-May-23 18:30N 69°44' E 030°05'0 0.0
2018-May-23 17:59N 69°44' E 030°05'0 0.0
2018-May-23 17:30N 69°44' E 030°05'0 0.0
2018-May-23 17:00N 69°44' E 030°05'0 0.0
2018-May-23 16:30N 69°44' E 030°05'0 0.0
2018-May-23 16:00N 69°44' E 030°05'0 0.0
2018-May-23 15:30N 69°44' E 030°05'0 0.0
2018-May-23 15:00N 69°44' E 030°05'0 0.0
2018-May-23 14:30N 69°44' E 030°05'0 0.0
2018-May-23 14:00N 69°44' E 030°05'0 0.0
2018-May-23 13:30N 69°44' E 030°05'0 0.0
2018-May-23 13:00N 69°44' E 030°05'0 0.0
2018-May-23 12:30N 69°44' E 030°05'0 0.0
2018-May-23 12:00N 69°44' E 030°05'0 0.0
2018-May-23 11:30N 69°44' E 030°05'0 0.0
2018-May-23 10:59N 69°44' E 030°05'0 0.0
2018-May-23 10:30N 69°44' E 030°05'0 0.0
2018-May-23 09:59N 69°44' E 030°05'0 0.0
2018-May-23 09:30N 69°44' E 030°05'0 0.0
2018-May-23 08:59N 69°44' E 030°05'0 0.0
2018-May-23 08:30N 69°44' E 030°05'0 0.0
2018-May-23 08:00N 69°44' E 030°05'0 0.0
2018-May-23 07:30N 69°44' E 030°05'0 0.0
2018-May-23 06:59N 69°44' E 030°05'0 0.0
2018-May-23 06:29N 69°44' E 030°05'0 0.0
2018-May-23 06:00N 69°44' E 030°05'0 0.0
2018-May-23 05:30N 69°44' E 030°05'0 0.0
2018-May-23 05:00N 69°44' E 030°05'0 0.0
2018-May-23 04:30N 69°44' E 030°05'0 0.0
2018-May-23 03:59N 69°44' E 030°05'0 0.0
2018-May-23 03:27N 69°44' E 030°05'0 0.0
2018-May-23 03:00N 69°44' E 030°05'0 0.0
2018-May-23 02:30N 69°44' E 030°05'0 0.0
2018-May-23 02:01N 69°44' E 030°05'0 0.0
2018-May-23 01:29N 69°44' E 030°05'0 0.0
2018-May-23 00:58N 69°44' E 030°05'0 0.0
2018-May-23 00:30N 69°44' E 030°05'0 0.0
2018-May-23 00:00N 69°44' E 030°05'0 0.0
2018-May-22 23:29N 69°44' E 030°05'0 0.0
2018-May-22 23:00N 69°44' E 030°05'0 0.0
2018-May-22 22:29N 69°44' E 030°05'0 0.0
2018-May-22 22:00N 69°44' E 030°05'0 0.0
2018-May-22 21:30N 69°44' E 030°05'0 0.0
2018-May-22 21:00N 69°44' E 030°05'0 0.0
2018-May-22 20:29N 69°44' E 030°05'0 0.0
2018-May-22 19:59N 69°44' E 030°05'0 0.0
2018-May-22 19:30N 69°44' E 030°05'0 0.0
2018-May-22 18:59N 69°44' E 030°05'0 0.0
2018-May-22 18:30N 69°44' E 030°05'0 0.0
2018-May-22 17:59N 69°44' E 030°05'0 0.0
2018-May-22 17:30N 69°44' E 030°05'0 0.0
2018-May-22 17:00N 69°44' E 030°05'0 0.0
2018-May-22 16:30N 69°44' E 030°05'0 0.0
2018-May-22 16:00N 69°44' E 030°05'0 0.0
2018-May-22 15:30N 69°44' E 030°05'0 0.0
2018-May-22 15:00N 69°44' E 030°05'0 0.0
2018-May-22 14:28N 69°44' E 030°05'0 0.0
2018-May-22 13:58N 69°44' E 030°05'0 0.0
2018-May-22 13:30N 69°44' E 030°05'0 0.0
2018-May-22 13:00N 69°44' E 030°05'0 0.0
2018-May-22 12:30N 69°44' E 030°05'0 0.0
2018-May-22 12:00N 69°44' E 030°05'0 0.0
2018-May-22 11:30N 69°44' E 030°05'0 0.0
2018-May-22 11:00N 69°44' E 030°05'0 0.0
2018-May-22 10:30N 69°44' E 030°05'0 0.0
2018-May-22 10:00N 69°44' E 030°05'0 0.0
2018-May-22 09:30N 69°44' E 030°05'0 0.0
2018-May-22 08:56N 69°44' E 030°05'0 0.0
2018-May-22 08:30N 69°44' E 030°05'0 0.0
2018-May-22 08:00N 69°44' E 030°05'0 0.0
2018-May-22 07:30N 69°44' E 030°05'0 0.0
2018-May-22 07:00N 69°44' E 030°05'0 0.0
2018-May-22 06:30N 69°44' E 030°05'2 4.8
2018-May-22 06:00N 69°46' E 030°05'4 7.9
2018-May-22 05:30N 69°50' E 030°07'4 8.3
2018-May-22 04:59N 69°54' E 030°12'5 9.4
2018-May-22 04:30N 69°57' E 030°23'510.0
2018-May-22 04:00N 69°60' E 030°35'5 9.9
2018-May-22 03:30N 70°03' E 030°46'5 9.9
2018-May-22 03:00N 70°06' E 030°57'5 9.1
2018-May-22 02:30N 70°09' E 031°07'5 9.6
2018-May-22 02:00N 70°12' E 031°18'5 9.5
2018-May-22 01:30N 70°15' E 031°28'5 9.5
2018-May-22 01:00N 70°18' E 031°39'4 3.2
2018-May-21 23:38N 70°20' E 031°51'1 5.1
2018-May-21 23:30N 70°19' E 031°51'19 5.1
2018-May-21 19:44N 70°37' E 031°32'2 9.7
2018-May-21 19:30N 70°39' E 031°28'510.0
2018-May-21 19:00N 70°43' E 031°17'5 9.9
2018-May-21 18:30N 70°46' E 031°07'510.1
2018-May-21 18:00N 70°50' E 030°55'510.2
2018-May-21 17:30N 70°53' E 030°43'5 9.9
2018-May-21 17:00N 70°56' E 030°31'5 9.8
2018-May-21 16:30N 70°59' E 030°19'5 9.8
2018-May-21 16:00N 71°02' E 030°07'510.2
2018-May-21 15:29N 71°05' E 029°54'510.0
2018-May-21 14:58N 71°08' E 029°41'5 9.7
2018-May-21 14:30N 71°10' E 029°29'5 9.6
2018-May-21 14:00N 71°13' E 029°18'5 9.4
2018-May-21 13:30N 71°16' E 029°06'5 9.1
2018-May-21 13:00N 71°19' E 028°56'4 9.0
2018-May-21 12:30N 71°22' E 028°45'  

Dump ship's entire track history